Terminal Aerodrome Forecast
Issued by NWS

Home | Current Version | Previous Version | Text Only | Print | Product List | Glossary On
Versions: 1 2 3 4 5 6 7 8 9 10 11 12 13 14 15 16 17 18 19 20 21 22 23 24 25 26 27 28 29 30 31 32 33 34 35 36 37
000
FTUS42 KRAH 030643 AAA
TAFINT
TAF AMD
KINT 030643Z 0307/0406 16003KT 4SM -RA BR BKN005 BKN015 OVC070
      TEMPO 0307/0311 SCT006 BKN015 OVC070
     FM031200 24006KT P6SM BKN020
     FM031500 20009KT P6SM SCT035 BKN060 PROB30 0318/0322 VRB15G30KT
      2SM -TSRA SCT020 BKN035CB=

USA.gov is the U.S. government's official web portal to all federal, state and local government web resources and services.